East Dennis, MA

7:41 AM EDT on October 02, 2014 (GMT -0400)
Provincetown Municipal | Change Station
CLOSE
Current Station
Airport
Location: Provincetown,
Elevation: 7 ft
Nearby Weather Stations

Elev 7 ft 42.07 °N, 70.22 °W | Updated -837 second ago

Overcast
Overcast
61 °F
Feels Like 61 °F
N
14
Wind Variable Wind from ENE
Gusts 17 mph

Today
High -- | Low -- °F
--% Chance of Precip.
Yesterday
High -- | Low -- °F
Precip. -- in
6:38 AM 6:20 PM
First Quarter, 58% visible
Pressure 30.02 in
Visibility 4.0 miles
Clouds Scattered Clouds 800 ft
Overcast 1300 ft
Dew Point 57 °F
Humidity 88%
Rainfall 0.00 in
Snow Depth Not available.
UV 0 out of 12
Pollen 2.00 out of 12
Air Quality Not available.
Flu Activity Not available.
METAR KPVC 011155Z 06012G15KT 4SM SCT008 OVC013 16/14 A3002 RMK AO1 10160 20160 52010

More Conditions Fewer Conditions

Pressure 30.02 in
Visibility 4.0 miles
Clouds Scattered Clouds 800 ft
Overcast 1300 ft
Dew Point 57 °F
Humidity 88%
Rainfall 0.00 in
Snow Depth Not available.
UV 0 out of 12
Pollen 2.00 out of 12
Air Quality Not available.
Flu Activity Not available.
METAR KPVC 011155Z 06012G15KT 4SM SCT008 OVC013 16/14 A3002 RMK AO1 10160 20160 52010

More Conditions Fewer Conditions

10-Day Weather Forecast

Almanac

Astronomy

Oct. 02, 2014 Rise Set
Actual Time 6:38 AM EDT 6:20 PM EDT
Civil Twilight 6:10 AM EDT 6:48 PM EDT
Nautical Twilight 5:38 AM EDT 7:20 PM EDT
Astronomical Twilight 5:05 AM EDT 7:53 PM EDT
Moon 2:28 PM EDT No Moon Set
Length of Visible Light 12h 37m
Length of Day
11h 42m
Tomorrow will be 2m 46s shorter.
First Quarter, 58% of the Moon is Illuminated
Today
First Quarter
Oct 8
Full
Oct 15
Last Quarter
Oct 23
New
Oct 30
First Quarter

Today's Extremes

State Highs State Lows

Community

WunderPhotos

Upload Photos

1,758,221 photos uploaded!

WunderBlogs® & News

Nearby

Air Quality

  Air Quality AQ Index Pollutant
Yesterday Good
OZONE
Thursday Good
PM2.5
Thursday Good
OZONE

Snow Depth

Station Depth Elevation
No new snow has been reported.

Earthquake Activity

City Distance Mag. Time & Date
No recent earthquake activity has been reported nearby.
Minimum magnitude displayed is 2.5.

Coastal Water Temperatures

Place Temperature
Woods Hole, MA 66.0 °F
Nantucket Island, MA 64.9 °F
Boston, MA 62.1 °F
Fall River, MA 66.9 °F

Nearby Weather Stations